You are listening to:
RJTT Tokyo Control - Tokyo, Japan

RJTT 051630Z 01009KT 9999 FEW020 BKN030 10/03 Q1030 NOSIG RMK 1CU020 7SC030 A3044

If stream doesn't start automatically press the play button
If stream stops then reload player then press play